sensor_id;sensor_type;location;lat;lon;timestamp;P1;durP1;ratioP1;P2;durP2;ratioP2
10142;SDS011;5112;54.088;13.446;2022-10-17T00:05:57;3.67;;;2.63;;
10142;SDS011;5112;54.088;13.446;2022-10-17T00:15:58;4.33;;;2.77;;
10142;SDS011;5112;54.088;13.446;2022-10-17T00:26:03;3.20;;;2.90;;
10142;SDS011;5112;54.088;13.446;2022-10-17T00:36:06;3.10;;;2.73;;
10142;SDS011;5112;54.088;13.446;2022-10-17T00:46:11;2.83;;;2.63;;
10142;SDS011;5112;54.088;13.446;2022-10-17T00:56:12;3.07;;;2.83;;
10142;SDS011;5112;54.088;13.446;2022-10-17T01:06:16;3.10;;;2.80;;
10142;SDS011;5112;54.088;13.446;2022-10-17T01:16:20;3.33;;;3.03;;
10142;SDS011;5112;54.088;13.446;2022-10-17T01:26:32;4.60;;;3.33;;
10142;SDS011;5112;54.088;13.446;2022-10-17T01:36:52;3.67;;;3.37;;
10142;SDS011;5112;54.088;13.446;2022-10-17T01:46:57;3.03;;;2.70;;
10142;SDS011;5112;54.088;13.446;2022-10-17T01:57:04;6.43;;;3.10;;
10142;SDS011;5112;54.088;13.446;2022-10-17T02:07:11;3.10;;;2.90;;
10142;SDS011;5112;54.088;13.446;2022-10-17T02:17:15;4.60;;;3.17;;
10142;SDS011;5112;54.088;13.446;2022-10-17T02:27:24;3.37;;;3.07;;
10142;SDS011;5112;54.088;13.446;2022-10-17T02:37:35;4.23;;;3.30;;
10142;SDS011;5112;54.088;13.446;2022-10-17T02:47:40;4.57;;;2.97;;
10142;SDS011;5112;54.088;13.446;2022-10-17T02:57:50;5.13;;;3.30;;
10142;SDS011;5112;54.088;13.446;2022-10-17T03:07:54;3.20;;;2.90;;
10142;SDS011;5112;54.088;13.446;2022-10-17T03:17:58;3.40;;;3.10;;
10142;SDS011;5112;54.088;13.446;2022-10-17T03:27:59;3.37;;;3.13;;
10142;SDS011;5112;54.088;13.446;2022-10-17T03:38:02;5.43;;;3.23;;
10142;SDS011;5112;54.088;13.446;2022-10-17T03:48:04;4.60;;;3.13;;
10142;SDS011;5112;54.088;13.446;2022-10-17T03:58:07;3.40;;;3.10;;
10142;SDS011;5112;54.088;13.446;2022-10-17T04:08:09;5.63;;;3.60;;
10142;SDS011;5112;54.088;13.446;2022-10-17T04:18:12;3.77;;;3.43;;
10142;SDS011;5112;54.088;13.446;2022-10-17T04:28:14;3.40;;;3.10;;
10142;SDS011;5112;54.088;13.446;2022-10-17T04:38:17;3.10;;;2.90;;
10142;SDS011;5112;54.088;13.446;2022-10-17T04:48:19;3.23;;;2.90;;
10142;SDS011;5112;54.088;13.446;2022-10-17T04:58:22;5.23;;;4.83;;
10142;SDS011;5112;54.088;13.446;2022-10-17T05:08:23;5.27;;;4.87;;
10142;SDS011;5112;54.088;13.446;2022-10-17T05:18:26;6.50;;;5.90;;
10142;SDS011;5112;54.088;13.446;2022-10-17T05:28:29;6.43;;;5.60;;
10142;SDS011;5112;54.088;13.446;2022-10-17T05:38:32;7.13;;;4.77;;
10142;SDS011;5112;54.088;13.446;2022-10-17T05:48:34;4.43;;;4.13;;
10142;SDS011;5112;54.088;13.446;2022-10-17T05:58:39;3.50;;;3.20;;
10142;SDS011;5112;54.088;13.446;2022-10-17T06:08:42;4.77;;;3.63;;
10142;SDS011;5112;54.088;13.446;2022-10-17T06:18:46;3.77;;;2.97;;
10142;SDS011;5112;54.088;13.446;2022-10-17T06:28:47;3.43;;;2.67;;
10142;SDS011;5112;54.088;13.446;2022-10-17T06:38:50;3.27;;;2.67;;
10142;SDS011;5112;54.088;13.446;2022-10-17T06:48:52;3.20;;;2.90;;
10142;SDS011;5112;54.088;13.446;2022-10-17T06:58:55;3.00;;;2.80;;
10142;SDS011;5112;54.088;13.446;2022-10-17T07:08:57;6.73;;;2.40;;
10142;SDS011;5112;54.088;13.446;2022-10-17T07:19:01;5.00;;;2.20;;
10142;SDS011;5112;54.088;13.446;2022-10-17T07:29:03;4.87;;;1.87;;
10142;SDS011;5112;54.088;13.446;2022-10-17T07:39:06;3.40;;;2.07;;
10142;SDS011;5112;54.088;13.446;2022-10-17T07:49:08;3.77;;;1.80;;
10142;SDS011;5112;54.088;13.446;2022-10-17T07:59:11;2.07;;;1.90;;
10142;SDS011;5112;54.088;13.446;2022-10-17T08:09:13;2.47;;;1.70;;
10142;SDS011;5112;54.088;13.446;2022-10-17T08:19:16;1.53;;;1.43;;
10142;SDS011;5112;54.088;13.446;2022-10-17T08:29:17;1.90;;;1.80;;
10142;SDS011;5112;54.088;13.446;2022-10-17T08:39:21;4.03;;;2.20;;
10142;SDS011;5112;54.088;13.446;2022-10-17T08:49:24;3.63;;;2.70;;
10142;SDS011;5112;54.088;13.446;2022-10-17T08:59:34;3.67;;;2.60;;
10142;SDS011;5112;54.088;13.446;2022-10-17T09:09:37;4.60;;;2.97;;
10142;SDS011;5112;54.088;13.446;2022-10-17T09:19:50;4.37;;;3.10;;
10142;SDS011;5112;54.088;13.446;2022-10-17T09:30:01;3.47;;;3.27;;
10142;SDS011;5112;54.088;13.446;2022-10-17T09:40:27;4.20;;;3.30;;
10142;SDS011;5112;54.088;13.446;2022-10-17T09:50:33;3.40;;;3.00;;
10142;SDS011;5112;54.088;13.446;2022-10-17T10:00:37;4.53;;;3.40;;
10142;SDS011;5112;54.088;13.446;2022-10-17T10:10:41;4.10;;;3.27;;
10142;SDS011;5112;54.088;13.446;2022-10-17T10:20:44;4.13;;;3.33;;
10142;SDS011;5112;54.088;13.446;2022-10-17T10:30:46;7.03;;;2.93;;
10142;SDS011;5112;54.088;13.446;2022-10-17T10:40:51;4.90;;;3.27;;
10142;SDS011;5112;54.088;13.446;2022-10-17T10:50:56;3.33;;;3.03;;
10142;SDS011;5112;54.088;13.446;2022-10-17T11:01:02;4.33;;;2.63;;
10142;SDS011;5112;54.088;13.446;2022-10-17T11:11:09;3.00;;;2.77;;
10142;SDS011;5112;54.088;13.446;2022-10-17T11:21:19;2.80;;;2.60;;
10142;SDS011;5112;54.088;13.446;2022-10-17T11:31:29;4.37;;;2.60;;
10142;SDS011;5112;54.088;13.446;2022-10-17T11:41:36;5.17;;;3.00;;
10142;SDS011;5112;54.088;13.446;2022-10-17T11:51:44;7.13;;;3.00;;
10142;SDS011;5112;54.088;13.446;2022-10-17T12:01:50;6.17;;;3.23;;
10142;SDS011;5112;54.088;13.446;2022-10-17T12:11:54;5.90;;;3.13;;
10142;SDS011;5112;54.088;13.446;2022-10-17T12:22:04;3.50;;;3.20;;
10142;SDS011;5112;54.088;13.446;2022-10-17T12:32:17;3.43;;;3.13;;
10142;SDS011;5112;54.088;13.446;2022-10-17T12:52:53;3.30;;;2.80;;
10142;SDS011;5112;54.088;13.446;2022-10-17T13:03:10;3.10;;;2.90;;
10142;SDS011;5112;54.088;13.446;2022-10-17T13:13:14;2.80;;;2.60;;
10142;SDS011;5112;54.088;13.446;2022-10-17T13:23:22;4.57;;;3.47;;
10142;SDS011;5112;54.088;13.446;2022-10-17T13:33:30;4.33;;;2.90;;
10142;SDS011;5112;54.088;13.446;2022-10-17T13:43:35;3.33;;;3.03;;
10142;SDS011;5112;54.088;13.446;2022-10-17T13:53:39;3.33;;;2.93;;
10142;SDS011;5112;54.088;13.446;2022-10-17T14:03:45;4.73;;;3.10;;
10142;SDS011;5112;54.088;13.446;2022-10-17T14:13:47;4.00;;;3.27;;
10142;SDS011;5112;54.088;13.446;2022-10-17T14:24:10;3.70;;;3.40;;
10142;SDS011;5112;54.088;13.446;2022-10-17T14:34:15;6.00;;;3.30;;
10142;SDS011;5112;54.088;13.446;2022-10-17T14:44:25;3.17;;;2.97;;
10142;SDS011;5112;54.088;13.446;2022-10-17T14:54:29;4.10;;;3.40;;
10142;SDS011;5112;54.088;13.446;2022-10-17T15:04:33;3.93;;;3.63;;
10142;SDS011;5112;54.088;13.446;2022-10-17T15:14:34;6.10;;;5.50;;
10142;SDS011;5112;54.088;13.446;2022-10-17T15:24:37;4.50;;;4.20;;
10142;SDS011;5112;54.088;13.446;2022-10-17T15:34:39;7.90;;;6.20;;
10142;SDS011;5112;54.088;13.446;2022-10-17T15:44:42;5.43;;;4.60;;
10142;SDS011;5112;54.088;13.446;2022-10-17T15:54:48;4.67;;;4.30;;
10142;SDS011;5112;54.088;13.446;2022-10-17T16:04:51;7.90;;;4.10;;
10142;SDS011;5112;54.088;13.446;2022-10-17T16:14:53;4.97;;;4.57;;
10142;SDS011;5112;54.088;13.446;2022-10-17T16:24:57;4.53;;;4.20;;
10142;SDS011;5112;54.088;13.446;2022-10-17T16:35:06;4.80;;;4.00;;
10142;SDS011;5112;54.088;13.446;2022-10-17T16:45:13;7.50;;;5.50;;
10142;SDS011;5112;54.088;13.446;2022-10-17T16:55:17;5.00;;;4.60;;
10142;SDS011;5112;54.088;13.446;2022-10-17T17:05:20;6.85;;;5.10;;
10142;SDS011;5112;54.088;13.446;2022-10-17T17:15:22;7.43;;;4.80;;
10142;SDS011;5112;54.088;13.446;2022-10-17T17:25:25;5.43;;;4.90;;
10142;SDS011;5112;54.088;13.446;2022-10-17T17:35:27;6.67;;;4.87;;
10142;SDS011;5112;54.088;13.446;2022-10-17T17:45:30;5.27;;;4.87;;
10142;SDS011;5112;54.088;13.446;2022-10-17T17:55:34;7.77;;;6.37;;
10142;SDS011;5112;54.088;13.446;2022-10-17T18:05:39;6.07;;;5.50;;
10142;SDS011;5112;54.088;13.446;2022-10-17T18:15:41;8.02;;;6.20;;
10142;SDS011;5112;54.088;13.446;2022-10-17T18:25:52;8.50;;;5.97;;
10142;SDS011;5112;54.088;13.446;2022-10-17T18:35:54;7.37;;;5.83;;
10142;SDS011;5112;54.088;13.446;2022-10-17T18:46:01;6.33;;;5.50;;
10142;SDS011;5112;54.088;13.446;2022-10-17T18:56:04;7.10;;;6.40;;
10142;SDS011;5112;54.088;13.446;2022-10-17T19:06:07;6.90;;;6.07;;
10142;SDS011;5112;54.088;13.446;2022-10-17T19:16:11;6.60;;;6.00;;
10142;SDS011;5112;54.088;13.446;2022-10-17T19:26:16;5.80;;;5.10;;
10142;SDS011;5112;54.088;13.446;2022-10-17T19:36:18;3.80;;;3.60;;
10142;SDS011;5112;54.088;13.446;2022-10-17T19:46:23;3.93;;;3.47;;
10142;SDS011;5112;54.088;13.446;2022-10-17T19:56:26;4.53;;;3.50;;
10142;SDS011;5112;54.088;13.446;2022-10-17T20:06:32;3.30;;;3.10;;
10142;SDS011;5112;54.088;13.446;2022-10-17T20:16:34;3.33;;;3.00;;
10142;SDS011;5112;54.088;13.446;2022-10-17T20:26:38;3.77;;;3.47;;
10142;SDS011;5112;54.088;13.446;2022-10-17T20:36:39;3.87;;;3.63;;
10142;SDS011;5112;54.088;13.446;2022-10-17T20:46:43;3.73;;;3.50;;
10142;SDS011;5112;54.088;13.446;2022-10-17T20:56:45;4.20;;;3.70;;
10142;SDS011;5112;54.088;13.446;2022-10-17T21:06:48;3.77;;;3.47;;
10142;SDS011;5112;54.088;13.446;2022-10-17T21:16:51;4.00;;;3.70;;
10142;SDS011;5112;54.088;13.446;2022-10-17T21:26:54;4.50;;;4.20;;
10142;SDS011;5112;54.088;13.446;2022-10-17T21:36:56;4.60;;;4.30;;
10142;SDS011;5112;54.088;13.446;2022-10-17T21:46:59;5.47;;;4.97;;
10142;SDS011;5112;54.088;13.446;2022-10-17T21:57:01;5.70;;;5.30;;
10142;SDS011;5112;54.088;13.446;2022-10-17T22:07:04;6.63;;;6.10;;
10142;SDS011;5112;54.088;13.446;2022-10-17T22:17:05;6.63;;;6.03;;
10142;SDS011;5112;54.088;13.446;2022-10-17T22:27:08;7.17;;;6.37;;
10142;SDS011;5112;54.088;13.446;2022-10-17T22:37:10;9.52;;;8.30;;
10142;SDS011;5112;54.088;13.446;2022-10-17T22:47:13;8.00;;;7.20;;
10142;SDS011;5112;54.088;13.446;2022-10-17T22:57:14;7.73;;;7.03;;
10142;SDS011;5112;54.088;13.446;2022-10-17T23:07:17;7.93;;;7.23;;
10142;SDS011;5112;54.088;13.446;2022-10-17T23:17:19;7.90;;;7.20;;
10142;SDS011;5112;54.088;13.446;2022-10-17T23:27:22;8.27;;;7.47;;
10142;SDS011;5112;54.088;13.446;2022-10-17T23:37:24;7.73;;;7.10;;
10142;SDS011;5112;54.088;13.446;2022-10-17T23:47:27;7.73;;;7.03;;
10142;SDS011;5112;54.088;13.446;2022-10-17T23:57:29;7.93;;;7.33;;
